Accueil
METAR-TAF:

METAR-TAF

Aéroports :

Aéroport international de Tân Sơn Nhất

Hô-Chi-Minh-Ville, Viêtnam

latitude: 10-49N, longitude: 106-40E, altitude: 19 m

Observation

Le bulletin a été fait il y a 27 minutes, à 12:30 UTC
Vent 10 kt de sud-est, variant entre est/sud-est et sud
Température 30°C
Humidité 55%
Pression 1010 hPa
Visibilité 10 km ou plus
Quelques nuages à une hauteur de 1700 ft

METAR: VVTS 041230Z 14010KT 120V180 9999 FEW017 30/20 Q1010 NOSIG

Heure: 19:57 (12:57 UTC)

Prévision

Le bulletin a été fait il y a 1 heure et 57 minutes, à 11:00 UTC
Prévision valable du 04 à 12 UTC au 05 à 18 UTC
Vent 10 kt de sud/sud-est
Visibilité 10 km ou plus
Quelques nuages à une hauteur de 1700 ft

TAF: VVTS 041100Z 0412/0518 16010KT 9999 FEW017

Observations et prévisions météorologiques de plus de 4000 aéroports (messages METAR et TAF).

Les stations disponibles sont représentées par des disques jaunes et rouges sur la carte.

Passer la souris dessus pour voir le nom de la station.

Cliquer dessus pour voir les observations et prévisions météorologiques.

Pour changer de carte: cliquez sur les boutons verts avec une croix noire pour zoomer, sur le bouton vert avec un tiret pour effectuer un zoom arrière, ou sur les flèches vertes pour les cartes adjacentes.


METAR-TAF: